Time;durP1;ratioP1;P1;durP2;ratioP2;P2;SDS_P1;SDS_P2;PMS_P1;PMS_P2;Temp;Humidity;BMP_temperature;BMP_pressure;BME280_temperature;BME280_humidity;BME280_pressure;Samples;Min_cycle;Max_cycle;Signal;HPM_P1;HPM_P2
2022/01/10 00:01:13;;;;;;;115.10;80.20;;;;;;;-2.45;68.87;97098.84;109615;1274;23313;-59
2022/01/10 00:03:42;;;;;;;142.40;86.30;;;;;;;-2.53;68.66;97100.33;109590;1274;22418;-60
2022/01/10 00:06:11;;;;;;;136.10;83.80;;;;;;;-2.60;68.64;97105.27;109590;1274;22544;-60
2022/01/10 00:08:40;;;;;;;133.30;88.20;;;;;;;-2.62;68.62;97105.80;109603;1274;22904;-59
2022/01/10 00:11:08;;;;;;;129.40;85.80;;;;;;;-2.63;68.79;97112.34;109579;1274;22492;-60
2022/01/10 00:13:36;;;;;;;124.60;81.90;;;;;;;-2.66;68.80;97115.12;109595;1274;22527;-60
2022/01/10 00:16:04;;;;;;;112.80;77.50;;;;;;;-2.70;68.88;97112.83;109604;1274;23141;-60
2022/01/10 00:18:32;;;;;;;102.80;73.10;;;;;;;-2.75;69.12;97121.95;109594;1274;22510;-60
2022/01/10 00:21:00;;;;;;;100.90;74.30;;;;;;;-2.79;69.11;97128.41;109586;1274;22492;-60
2022/01/10 00:23:28;;;;;;;106.30;77.10;;;;;;;-2.80;69.40;97128.13;109604;1274;22422;-61
2022/01/10 00:25:56;;;;;;;105.40;77.40;;;;;;;-2.79;69.48;97126.98;109534;1276;22514;-60
2022/01/10 00:28:25;;;;;;;99.00;75.30;;;;;;;-2.78;69.46;97130.43;109542;1276;22571;-60
2022/01/10 00:30:53;;;;;;;101.20;74.60;;;;;;;-2.77;69.46;97130.39;109527;1274;23203;-60
2022/01/10 00:33:21;;;;;;;101.60;74.90;;;;;;;-2.78;69.52;97132.12;109595;1274;22508;-60
2022/01/10 00:35:49;;;;;;;103.80;75.30;;;;;;;-2.80;69.13;97134.77;109514;1274;22262;-60
2022/01/10 00:38:18;;;;;;;82.80;70.70;;;;;;;-2.85;68.99;97140.10;109595;1274;22415;-60
2022/01/10 00:40:49;;;;;;;83.80;71.30;;;;;;;-2.86;69.23;97139.23;109613;1274;22582;-60
2022/01/10 00:43:29;;;;;;;81.60;70.80;;;;;;;-2.86;69.46;97145.61;109523;1275;23157;-60
2022/01/10 00:45:58;;;;;;;94.40;73.80;;;;;;;-2.88;69.36;97153.21;109612;1274;22413;-61
2022/01/10 00:48:26;;;;;;;85.70;74.20;;;;;;;-2.91;69.54;97155.25;109610;1274;23155;-60
2022/01/10 00:50:56;;;;;;;99.30;76.10;;;;;;;-2.94;69.57;97157.66;109559;1275;22450;-61
2022/01/10 00:53:25;;;;;;;145.30;91.10;;;;;;;-2.97;69.62;97161.71;109542;1275;23215;-60
2022/01/10 00:55:53;;;;;;;110.00;82.00;;;;;;;-3.02;69.71;97162.18;109624;1274;22474;-61
2022/01/10 00:58:21;;;;;;;118.30;82.40;;;;;;;-3.01;69.86;97167.10;109583;1274;22417;-61
2022/01/10 01:00:51;;;;;;;135.10;83.80;;;;;;;-3.00;69.86;97167.13;109582;1274;23217;-61
2022/01/10 01:03:19;;;;;;;104.10;75.10;;;;;;;-2.96;69.97;97168.73;109429;1276;22531;-62
2022/01/10 01:05:47;;;;;;;123.80;82.00;;;;;;;-2.91;69.79;97167.48;109606;1274;22559;-62
2022/01/10 01:08:16;;;;;;;99.60;77.70;;;;;;;-2.85;69.91;97167.52;109533;1275;23151;-62
2022/01/10 01:16:11;;;;;;;104.50;79.80;;;;;;;-2.85;69.80;97174.53;109602;1274;22253;-62
2022/01/10 01:24:03;;;;;;;114.10;85.10;;;;;;;-3.07;70.06;97181.91;109594;1274;22435;-62
2022/01/10 01:26:34;;;;;;;106.20;81.70;;;;;;;-3.16;70.05;97184.16;109567;1276;22491;-62
2022/01/10 01:29:04;;;;;;;116.40;88.50;;;;;;;-3.23;70.20;97184.95;109615;1274;23200;-63
2022/01/10 01:31:33;;;;;;;87.10;70.90;;;;;;;-3.25;70.24;97186.85;109588;1274;22449;-63
2022/01/10 01:34:02;;;;;;;84.60;69.80;;;;;;;-3.25;70.14;97191.27;109548;1275;23159;-62
2022/01/10 01:36:32;;;;;;;80.00;69.50;;;;;;;-3.23;70.08;97189.47;109611;1274;22439;-63
2022/01/10 01:39:05;;;;;;;86.20;72.20;;;;;;;-3.21;69.95;97191.34;109623;1274;22625;-62
2022/01/10 01:44:03;;;;;;;93.70;74.00;;;;;;;-3.31;69.98;97193.33;109614;1274;23208;-63
2022/01/10 01:46:34;;;;;;;79.60;70.80;;;;;;;-3.37;70.26;97192.98;109617;1274;22564;-63
2022/01/10 01:49:05;;;;;;;74.80;65.40;;;;;;;-3.40;70.40;97199.49;109554;1275;22578;-63
2022/01/10 01:51:33;;;;;;;75.30;67.40;;;;;;;-3.42;70.43;97201.83;109590;1274;23182;-62
2022/01/10 01:54:03;;;;;;;83.40;69.90;;;;;;;-3.44;70.47;97201.30;109488;1274;22452;-63
2022/01/10 01:56:32;;;;;;;75.40;67.80;;;;;;;-3.49;70.34;97206.80;109613;1274;22468;-63
2022/01/10 01:59:00;;;;;;;72.90;63.80;;;;;;;-3.58;70.39;97207.02;109602;1274;22453;-63
2022/01/10 02:01:29;;;;;;;69.50;59.20;;;;;;;-3.60;70.42;97212.69;109645;1274;22391;-63
2022/01/10 02:03:57;;;;;;;68.00;60.80;;;;;;;-3.61;70.28;97211.36;109535;1274;22424;-62
2022/01/10 02:06:29;;;;;;;70.60;60.20;;;;;;;-3.60;70.22;97217.16;109615;1274;23204;-63
2022/01/10 02:08:58;;;;;;;72.90;65.10;;;;;;;-3.65;70.15;97224.63;109603;1274;22248;-62
2022/01/10 02:11:26;;;;;;;78.30;70.00;;;;;;;-3.73;70.27;97223.16;109652;1274;22426;-62
2022/01/10 02:13:54;;;;;;;72.00;64.10;;;;;;;-3.80;70.47;97223.41;109641;1274;22451;-60
2022/01/10 02:16:42;;;;;;;72.90;65.00;;;;;;;-3.82;70.69;97224.98;109678;1274;23211;-63
2022/01/10 02:19:17;;;;;;;70.00;61.70;;;;;;;-3.82;70.93;97227.29;109670;1274;22153;-64
2022/01/10 02:21:45;;;;;;;65.70;58.70;;;;;;;-3.82;70.75;97228.93;109689;1274;23176;-61
2022/01/10 02:24:14;;;;;;;62.10;55.60;;;;;;;-3.89;70.51;97233.13;109566;1274;22541;-62
2022/01/10 02:26:48;;;;;;;57.90;51.70;;;;;;;-3.97;70.71;97231.89;109651;1274;22387;-62
2022/01/10 02:29:17;;;;;;;55.90;50.10;;;;;;;-3.95;70.77;97237.05;109424;1273;367042;-62
2022/01/10 02:31:46;;;;;;;54.20;48.30;;;;;;;-3.87;70.86;97239.81;109665;1273;23183;-62
2022/01/10 02:34:18;;;;;;;59.00;53.00;;;;;;;-3.76;70.79;97239.10;109633;1274;22435;-62
2022/01/10 02:36:46;;;;;;;58.20;52.20;;;;;;;-3.72;70.55;97241.51;109693;1274;22537;-62
2022/01/10 02:39:20;;;;;;;61.50;55.00;;;;;;;-3.78;70.52;97245.30;109551;1274;22892;-63
2022/01/10 02:41:50;;;;;;;65.50;56.80;;;;;;;-3.84;70.71;97246.88;109670;1274;22543;-62
2022/01/10 02:44:21;;;;;;;59.30;53.10;;;;;;;-3.90;70.98;97249.00;109704;1274;22428;-62
2022/01/10 02:46:54;;;;;;;59.30;53.30;;;;;;;-3.95;71.19;97249.96;109691;1274;23325;-62
2022/01/10 02:49:34;;;;;;;73.70;66.30;;;;;;;-4.02;71.14;97249.20;109693;1274;23219;-62
2022/01/10 02:52:06;;;;;;;81.80;73.30;;;;;;;-4.06;71.05;97251.55;109545;1274;22445;-63
2022/01/10 02:54:42;;;;;;;74.00;66.30;;;;;;;-4.13;70.78;97251.20;109545;1274;22533;-62
2022/01/10 02:57:19;;;;;;;65.90;58.80;;;;;;;-4.23;70.95;97254.87;109671;1274;22526;-62
2022/01/10 02:59:47;;;;;;;58.90;52.90;;;;;;;-4.28;70.76;97261.45;109690;1274;22591;-62
2022/01/10 03:02:23;;;;;;;57.30;51.70;;;;;;;-4.33;70.59;97261.94;109694;1274;22526;-61
2022/01/10 03:04:52;;;;;;;70.60;63.60;;;;;;;-4.38;70.74;97260.73;109706;1274;22398;-62
2022/01/10 03:07:23;;;;;;;63.20;56.60;;;;;;;-4.41;71.00;97260.57;109675;1274;22435;-62
2022/01/10 03:09:57;;;;;;;79.90;71.10;;;;;;;-4.44;71.08;97260.84;109664;1274;23328;-62
2022/01/10 03:12:30;;;;;;;82.50;74.30;;;;;;;-4.53;71.00;97263.31;109665;1274;23127;-62
2022/01/10 03:15:04;;;;;;;55.40;49.70;;;;;;;-4.60;71.11;97271.52;109687;1274;23219;-63
2022/01/10 03:17:32;;;;;;;59.00;53.00;;;;;;;-4.67;71.36;97271.18;109632;1274;22184;-62
2022/01/10 03:20:07;;;;;;;74.50;66.90;;;;;;;-4.70;71.61;97270.05;109673;1274;22587;-63
2022/01/10 03:22:38;;;;;;;56.50;50.40;;;;;;;-4.72;71.64;97269.98;109652;1274;22452;-62
2022/01/10 03:25:07;;;;;;;54.20;48.70;;;;;;;-4.74;71.47;97272.70;109557;1274;23205;-62
2022/01/10 03:27:41;;;;;;;61.80;55.40;;;;;;;-4.76;71.17;97273.48;109698;1274;22505;-62
2022/01/10 03:30:10;;;;;;;56.60;51.10;;;;;;;-4.80;71.10;97282.83;109677;1274;22589;-62
2022/01/10 03:32:39;;;;;;;62.20;55.80;;;;;;;-4.85;71.21;97289.56;109657;1274;22564;-62
2022/01/10 03:35:15;;;;;;;64.50;58.20;;;;;;;-4.90;71.56;97296.77;109534;1274;22976;-62
2022/01/10 03:37:44;;;;;;;62.30;56.10;;;;;;;-4.91;71.89;97304.51;109700;1274;23175;-62
2022/01/10 03:40:12;;;;;;;88.60;77.40;;;;;;;-4.92;71.89;97306.40;109660;1273;23205;-62
2022/01/10 03:42:40;;;;;;;67.70;60.70;;;;;;;-4.96;72.00;97310.45;109657;1274;22447;-62
2022/01/10 03:45:08;;;;;;;68.40;61.60;;;;;;;-5.01;72.04;97311.27;109657;1274;22449;-61
2022/01/10 03:47:36;;;;;;;61.40;55.10;;;;;;;-5.07;71.92;97315.83;109544;1274;22644;-62
2022/01/10 03:50:05;;;;;;;59.60;53.20;;;;;;;-5.13;71.61;97322.52;109671;1274;22477;-62
2022/01/10 03:52:34;;;;;;;57.60;52.00;;;;;;;-5.18;71.42;97322.05;109652;1274;22459;-62
2022/01/10 03:55:03;;;;;;;76.80;69.00;;;;;;;-5.21;71.90;97329.97;109695;1274;22452;-63
2022/01/10 03:57:31;;;;;;;70.40;63.50;;;;;;;-5.22;71.91;97328.56;109524;1274;23224;-62
2022/01/10 03:59:59;;;;;;;68.80;61.70;;;;;;;-5.21;71.97;97331.55;109695;1274;22481;-62
2022/01/10 04:02:31;;;;;;;67.40;61.00;;;;;;;-5.18;72.14;97332.25;109594;1274;23176;-62
2022/01/10 04:04:59;;;;;;;67.00;60.30;;;;;;;-5.17;72.20;97338.40;109564;1274;22555;-62
2022/01/10 04:07:28;;;;;;;67.30;60.60;;;;;;;-5.17;71.99;97344.00;109665;1273;22512;-62
2022/01/10 04:09:56;;;;;;;57.80;52.10;;;;;;;-5.20;72.04;97340.92;109701;1273;22683;-61
2022/01/10 04:12:25;;;;;;;62.90;57.00;;;;;;;-5.30;71.83;97345.42;109536;1274;22414;-61
2022/01/10 04:14:53;;;;;;;56.80;51.20;;;;;;;-5.38;71.89;97345.30;109564;1274;22356;-62
2022/01/10 04:17:21;;;;;;;66.60;60.00;;;;;;;-5.41;72.09;97349.77;109651;1274;22484;-62
2022/01/10 04:19:49;;;;;;;62.80;56.40;;;;;;;-5.43;71.98;97349.13;109653;1274;22600;-62
2022/01/10 04:22:17;;;;;;;66.20;60.00;;;;;;;-5.42;71.98;97353.45;109664;1274;22561;-61
2022/01/10 04:24:45;;;;;;;72.60;65.50;;;;;;;-5.43;72.17;97355.06;109676;1274;22459;-62
2022/01/10 04:27:14;;;;;;;67.80;61.10;;;;;;;-5.44;72.00;97359.80;109665;1274;22212;-61
2022/01/10 04:29:42;;;;;;;67.10;60.20;;;;;;;-5.48;71.99;97358.23;109653;1274;22490;-61
2022/01/10 04:32:12;;;;;;;72.50;65.00;;;;;;;-5.54;72.07;97365.33;109675;1274;22465;-61
2022/01/10 04:34:40;;;;;;;69.80;61.90;;;;;;;-5.61;71.83;97364.04;109698;1274;22737;-60
2022/01/10 04:37:08;;;;;;;78.90;67.60;;;;;;;-5.70;72.06;97367.14;109707;1272;22540;-60
2022/01/10 04:39:37;;;;;;;94.30;71.80;;;;;;;-5.76;71.98;97369.58;109684;1274;22616;-61
2022/01/10 04:42:05;;;;;;;71.60;59.50;;;;;;;-5.82;72.19;97372.55;109669;1274;23189;-61
2022/01/10 04:44:33;;;;;;;122.70;81.80;;;;;;;-5.88;72.19;97378.86;109687;1271;22473;-61
2022/01/10 04:47:02;;;;;;;139.80;84.40;;;;;;;-5.90;72.16;97382.17;109653;1274;22610;-61
2022/01/10 04:49:40;;;;;;;124.60;84.80;;;;;;;-5.93;72.36;97384.05;109680;1274;23306;-61
2022/01/10 04:52:08;;;;;;;129.50;93.80;;;;;;;-5.94;72.56;97388.60;109680;1274;22557;-61
2022/01/10 04:54:37;;;;;;;105.50;81.70;;;;;;;-5.93;72.79;97395.80;109679;1274;22168;-61
2022/01/10 04:57:05;;;;;;;89.80;76.80;;;;;;;-5.97;72.26;97400.59;109653;1273;23208;-61
2022/01/10 04:59:33;;;;;;;100.60;81.40;;;;;;;-6.05;72.46;97401.42;109646;1274;22460;-61
2022/01/10 05:02:01;;;;;;;107.40;80.00;;;;;;;-6.09;72.57;97404.40;109657;1274;22440;-61
2022/01/10 05:04:29;;;;;;;81.30;66.80;;;;;;;-6.08;72.87;97408.60;109667;1273;22445;-61
2022/01/10 05:06:58;;;;;;;71.40;63.80;;;;;;;-6.06;72.83;97414.81;109674;1274;22619;-61
2022/01/10 05:09:27;;;;;;;68.10;60.70;;;;;;;-5.99;72.82;97420.36;109666;1274;22550;-61
2022/01/10 05:12:05;;;;;;;73.60;66.00;;;;;;;-5.90;72.84;97421.29;109644;1274;22595;-61
2022/01/10 05:14:34;;;;;;;100.60;81.60;;;;;;;-5.87;72.98;97425.98;109649;1274;22343;-64
2022/01/10 05:17:03;;;;;;;129.20;91.70;;;;;;;-5.83;72.64;97434.84;109696;1274;22352;-61
2022/01/10 05:19:31;;;;;;;233.20;157.50;;;;;;;-5.90;72.34;97434.81;109663;1274;22612;-61
2022/01/10 05:21:59;;;;;;;181.20;118.90;;;;;;;-6.10;72.29;97436.00;109680;1274;22539;-61
2022/01/10 05:24:27;;;;;;;176.00;113.90;;;;;;;-6.33;72.73;97440.46;109665;1274;22408;-61
2022/01/10 05:26:57;;;;;;;165.90;106.70;;;;;;;-6.49;72.81;97444.21;109699;1274;23130;-61
2022/01/10 05:29:26;;;;;;;154.50;99.10;;;;;;;-6.57;72.93;97453.02;109553;1274;22469;-61
2022/01/10 05:31:55;;;;;;;169.70;112.80;;;;;;;-6.55;73.09;97456.39;109699;1274;22408;-61
2022/01/10 05:34:33;;;;;;;158.70;104.10;;;;;;;-6.51;72.92;97465.89;109655;1274;22461;-61
2022/01/10 05:37:01;;;;;;;141.40;95.80;;;;;;;-6.49;72.58;97466.34;109685;1274;22510;-61
2022/01/10 05:39:30;;;;;;;135.70;93.50;;;;;;;-6.52;72.62;97470.80;109650;1274;22468;-61
2022/01/10 05:41:58;;;;;;;119.70;91.70;;;;;;;-6.56;72.69;97474.16;109678;1273;22408;-61
2022/01/10 05:44:27;;;;;;;150.00;104.70;;;;;;;-6.60;73.05;97479.12;109668;1274;22445;-61
2022/01/10 05:46:59;;;;;;;136.00;98.90;;;;;;;-6.60;73.43;97486.58;109658;1274;22441;-61
2022/01/10 05:49:33;;;;;;;109.30;83.90;;;;;;;-6.63;73.48;97481.17;109648;1274;22973;-61
2022/01/10 05:52:02;;;;;;;101.80;80.00;;;;;;;-6.57;73.63;97488.18;109675;1274;22523;-61
2022/01/10 05:54:37;;;;;;;108.10;81.20;;;;;;;-6.50;73.54;97494.09;109643;1273;22456;-61
2022/01/10 05:57:06;;;;;;;113.10;80.50;;;;;;;-6.40;73.42;97489.34;109640;1274;22545;-61
2022/01/10 05:59:37;;;;;;;104.30;82.00;;;;;;;-6.33;73.15;97498.05;109665;1274;22527;-62
2022/01/10 06:02:05;;;;;;;87.80;76.30;;;;;;;-6.32;73.03;97506.89;109657;1274;22455;-62
2022/01/10 06:04:34;;;;;;;91.90;79.30;;;;;;;-6.33;73.02;97509.39;109661;1273;22523;-61
2022/01/10 06:07:13;;;;;;;151.60;102.50;;;;;;;-6.36;73.44;97518.98;109634;1274;22515;-62
2022/01/10 06:09:42;;;;;;;499.00;345.10;;;;;;;-6.42;73.16;97528.61;109622;1274;22580;-61
2022/01/10 06:12:10;;;;;;;407.50;259.50;;;;;;;-6.49;73.29;97533.68;109638;1274;23082;-61
2022/01/10 06:14:39;;;;;;;640.50;454.20;;;;;;;-6.57;72.94;97544.67;109641;1274;23196;-62
2022/01/10 06:17:07;;;;;;;488.40;303.70;;;;;;;-6.64;73.65;97553.93;109636;1274;23322;-61
2022/01/10 06:19:35;;;;;;;303.80;174.20;;;;;;;-6.67;73.80;97559.33;109642;1273;22584;-62
2022/01/10 06:22:04;;;;;;;281.90;167.10;;;;;;;-6.62;73.55;97560.34;109535;1274;22466;-61
2022/01/10 06:24:32;;;;;;;287.10;173.20;;;;;;;-6.54;73.56;97570.92;109626;1274;22508;-61
2022/01/10 06:27:00;;;;;;;304.30;173.00;;;;;;;-6.48;73.39;97578.41;109520;1274;23111;-62
2022/01/10 06:29:28;;;;;;;280.40;161.40;;;;;;;-6.48;73.12;97581.02;109643;1274;22455;-62
2022/01/10 06:31:56;;;;;;;216.20;133.70;;;;;;;-6.48;73.24;97583.48;109678;1274;22427;-62
2022/01/10 06:34:24;;;;;;;212.50;126.50;;;;;;;-6.49;73.49;97588.45;109675;1273;22395;-62
2022/01/10 06:36:53;;;;;;;209.20;127.30;;;;;;;-6.48;73.25;97596.02;109673;1274;22348;-62
2022/01/10 06:39:21;;;;;;;212.00;133.70;;;;;;;-6.49;73.37;97601.27;109641;1274;22488;-61
2022/01/10 06:41:50;;;;;;;240.10;140.50;;;;;;;-6.50;73.59;97606.23;109637;1273;22389;-61
2022/01/10 06:44:18;;;;;;;189.80;113.50;;;;;;;-6.45;73.62;97609.42;109630;1274;22425;-60
2022/01/10 06:46:46;;;;;;;182.50;111.30;;;;;;;-6.34;73.78;97610.95;109658;1274;22456;-61
2022/01/10 06:49:16;;;;;;;359.60;113.40;;;;;;;-6.23;74.02;97614.16;109654;1274;22614;-61
2022/01/10 06:51:44;;;;;;;955.60;180.10;;;;;;;-6.10;74.07;97620.36;109627;1273;23372;-61
2022/01/10 06:54:13;;;;;;;340.30;118.30;;;;;;;-5.99;74.25;97620.98;109638;1274;22543;-62
2022/01/10 06:56:43;;;;;;;415.20;119.30;;;;;;;-5.88;74.19;97627.59;109654;1274;22448;-61
2022/01/10 06:59:12;;;;;;;180.90;107.90;;;;;;;-5.80;74.55;97634.30;109648;1274;22485;-61
2022/01/10 07:01:44;;;;;;;172.60;110.40;;;;;;;-5.74;74.58;97639.66;109656;1274;22359;-62
2022/01/10 07:04:13;;;;;;;161.80;102.40;;;;;;;-5.68;74.15;97641.73;109638;1274;22475;-62
2022/01/10 07:06:42;;;;;;;143.80;95.90;;;;;;;-5.61;74.32;97647.15;109531;1274;23338;-62
2022/01/10 07:09:16;;;;;;;101.40;85.00;;;;;;;-5.49;74.66;97647.35;109626;1274;23355;-62
2022/01/10 07:11:55;;;;;;;106.60;75.90;;;;;;;-5.36;74.69;97659.08;109629;1274;23071;-61
2022/01/10 07:14:24;;;;;;;137.20;75.70;;;;;;;-5.23;75.06;97660.88;109662;1274;23163;-62
2022/01/10 07:16:53;;;;;;;369.40;86.20;;;;;;;-5.09;75.60;97664.83;109669;1273;22555;-62
2022/01/10 07:19:22;;;;;;;108.50;64.00;;;;;;;-4.99;75.24;97666.91;109630;1274;22349;-62
2022/01/10 07:21:51;;;;;;;742.80;126.20;;;;;;;-4.85;75.33;97672.98;109676;1273;22514;-62
2022/01/10 07:24:19;;;;;;;89.70;62.10;;;;;;;-4.70;75.30;97679.42;109643;1274;22673;-61
2022/01/10 07:26:48;;;;;;;71.40;63.90;;;;;;;-4.57;75.19;97675.83;109683;1271;22523;-62
2022/01/10 07:29:16;;;;;;;70.40;63.10;;;;;;;-4.47;75.14;97681.66;109699;1272;22591;-62
2022/01/10 07:31:44;;;;;;;74.50;67.20;;;;;;;-4.38;75.07;97692.63;109644;1274;22448;-62
2022/01/10 07:34:15;;;;;;;92.80;70.90;;;;;;;-4.33;75.13;97695.93;109697;1273;22413;-62
2022/01/10 07:36:44;;;;;;;109.70;73.50;;;;;;;-4.28;75.18;97697.64;109702;1274;22961;-63
2022/01/10 07:39:12;;;;;;;79.10;67.50;;;;;;;-4.24;75.16;97702.58;109673;1273;22345;-62
2022/01/10 07:41:45;;;;;;;73.40;64.10;;;;;;;-4.19;75.15;97706.60;109652;1273;22482;-62
2022/01/10 07:44:24;;;;;;;69.30;61.80;;;;;;;-4.11;75.07;97710.98;109408;1276;23207;-62
2022/01/10 07:46:55;;;;;;;72.00;62.60;;;;;;;-4.04;75.15;97716.42;109535;1275;22415;-62
2022/01/10 07:49:23;;;;;;;83.90;61.40;;;;;;;-3.99;75.08;97727.65;109626;1274;22526;-62
2022/01/10 07:51:51;;;;;;;73.60;58.80;;;;;;;-3.94;75.04;97732.08;109608;1274;23273;-62
2022/01/10 07:54:19;;;;;;;67.90;57.90;;;;;;;-3.91;75.10;97736.27;109618;1274;23083;-62
2022/01/10 07:56:47;;;;;;;66.90;57.10;;;;;;;-3.86;74.97;97741.48;109620;1274;22258;-62
2022/01/10 07:59:15;;;;;;;60.30;53.50;;;;;;;-3.80;74.95;97742.26;109503;1275;22601;-61
2022/01/10 08:01:45;;;;;;;68.40;61.20;;;;;;;-3.73;74.97;97748.58;109633;1272;22415;-61
2022/01/10 08:04:14;;;;;;;66.30;59.80;;;;;;;-3.67;74.92;97748.15;109631;1274;22658;-62
2022/01/10 08:06:42;;;;;;;68.60;62.20;;;;;;;-3.63;74.90;97758.81;109482;1274;23363;-62
2022/01/10 08:09:10;;;;;;;74.00;66.90;;;;;;;-3.62;74.88;97768.56;109601;1274;22591;-62
2022/01/10 08:11:38;;;;;;;82.80;70.60;;;;;;;-3.63;74.74;97774.02;109622;1273;22435;-62
2022/01/10 08:14:06;;;;;;;76.10;67.20;;;;;;;-3.68;74.69;97776.71;109610;1274;22473;-63
2022/01/10 08:16:34;;;;;;;75.00;67.00;;;;;;;-3.70;74.66;97777.08;109626;1274;22523;-62
2022/01/10 08:19:03;;;;;;;106.10;72.30;;;;;;;-3.68;74.55;97778.98;109610;1274;22508;-63
2022/01/10 08:21:32;;;;;;;94.20;75.20;;;;;;;-3.63;74.59;97782.36;109618;1274;22608;-62
2022/01/10 08:24:04;;;;;;;85.70;75.10;;;;;;;-3.60;74.60;97791.83;109619;1274;22909;-62
2022/01/10 08:26:32;;;;;;;95.80;75.70;;;;;;;-3.62;74.52;97794.71;109596;1274;22364;-62
2022/01/10 08:29:02;;;;;;;85.40;73.10;;;;;;;-3.65;74.57;97794.00;109620;1274;22466;-62
2022/01/10 08:31:33;;;;;;;84.70;67.90;;;;;;;-3.65;74.48;97797.04;109620;1274;22560;-62
2022/01/10 08:34:03;;;;;;;91.50;66.00;;;;;;;-3.63;74.62;97801.23;109618;1274;22723;-63
2022/01/10 08:36:32;;;;;;;71.30;63.60;;;;;;;-3.63;74.64;97801.84;109614;1274;23160;-62
2022/01/10 08:39:01;;;;;;;74.20;66.30;;;;;;;-3.59;74.54;97810.09;109602;1274;22400;-62
2022/01/10 08:41:29;;;;;;;77.80;69.40;;;;;;;-3.56;74.64;97814.52;109488;1274;22416;-62
2022/01/10 08:43:58;;;;;;;79.30;70.90;;;;;;;-3.52;74.69;97824.98;109614;1274;22383;-62
2022/01/10 08:46:26;;;;;;;123.80;79.80;;;;;;;-3.50;74.57;97829.09;109613;1274;22511;-62
2022/01/10 08:48:55;;;;;;;100.20;86.00;;;;;;;-3.47;74.59;97836.98;109556;1276;22385;-62
2022/01/10 08:51:24;;;;;;;126.90;90.10;;;;;;;-3.44;74.49;97845.60;109600;1274;22553;-62
2022/01/10 08:53:52;;;;;;;115.50;87.90;;;;;;;-3.46;74.44;97854.27;109617;1274;22239;-62
2022/01/10 08:56:20;;;;;;;104.10;85.60;;;;;;;-3.45;74.47;97860.88;109617;1274;22474;-62
2022/01/10 08:58:48;;;;;;;111.80;89.50;;;;;;;-3.43;74.57;97865.40;109607;1274;22474;-62
2022/01/10 09:01:19;;;;;;;126.40;91.10;;;;;;;-3.40;74.58;97869.45;109608;1274;22673;-62
2022/01/10 09:03:47;;;;;;;126.70;95.10;;;;;;;-3.37;74.72;97872.81;109482;1276;22513;-62
2022/01/10 09:06:17;;;;;;;114.30;91.10;;;;;;;-3.34;74.64;97873.71;109592;1274;22962;-62
2022/01/10 09:08:48;;;;;;;117.20;92.20;;;;;;;-3.30;74.85;97877.88;109594;1274;22434;-62
2022/01/10 09:11:17;;;;;;;74.30;67.40;;;;;;;-3.24;74.75;97885.76;109592;1274;22564;-62
2022/01/10 09:13:45;;;;;;;57.40;51.70;;;;;;;-3.24;74.70;97888.09;109484;1274;23675;-62
2022/01/10 09:16:14;;;;;;;52.90;47.30;;;;;;;-3.21;74.59;97893.41;109546;1275;22539;-62
2022/01/10 09:18:42;;;;;;;52.50;46.00;;;;;;;-3.24;74.79;97899.37;109607;1274;22356;-61
2022/01/10 09:21:12;;;;;;;48.60;43.50;;;;;;;-3.30;74.90;97901.51;109608;1273;22481;-62
2022/01/10 09:23:40;;;;;;;51.00;45.60;;;;;;;-3.37;74.88;97901.73;109594;1272;22441;-62
2022/01/10 09:26:08;;;;;;;47.40;42.70;;;;;;;-3.41;74.92;97902.81;109595;1272;22573;-63
2022/01/10 09:28:36;;;;;;;48.30;43.40;;;;;;;-3.46;74.94;97908.17;109599;1274;22430;-62
2022/01/10 09:31:04;;;;;;;41.00;36.90;;;;;;;-3.48;74.93;97906.77;109438;1274;23196;-64
2022/01/10 09:33:32;;;;;;;55.30;46.20;;;;;;;-3.47;75.04;97905.83;109620;1274;22456;-61
2022/01/10 09:36:00;;;;;;;47.50;42.90;;;;;;;-3.43;75.24;97911.12;109609;1274;23008;-62
2022/01/10 09:38:29;;;;;;;63.50;46.10;;;;;;;-3.46;75.29;97913.41;109597;1274;22461;-61
2022/01/10 09:40:59;;;;;;;48.50;44.00;;;;;;;-3.47;75.70;97915.08;109599;1274;22423;-62
2022/01/10 09:43:27;;;;;;;45.30;40.90;;;;;;;-3.45;75.49;97917.61;109624;1274;23072;-62
2022/01/10 09:45:56;;;;;;;38.40;34.70;;;;;;;-3.44;75.43;97921.23;109599;1274;22635;-62
2022/01/10 09:48:24;;;;;;;39.70;35.60;;;;;;;-3.42;75.60;97925.80;109519;1274;22394;-62
2022/01/10 09:51:13;;;;;;;85.80;36.40;;;;;;;-3.39;75.56;97929.39;109579;1274;23098;-62
2022/01/10 09:53:42;;;;;;;40.70;36.80;;;;;;;-3.35;75.71;97926.16;109598;1274;22507;-61
2022/01/10 09:56:10;;;;;;;40.50;36.80;;;;;;;-3.32;75.94;97930.06;109443;1276;22291;-61
2022/01/10 09:58:40;;;;;;;38.20;34.30;;;;;;;-3.32;75.97;97936.90;109546;1276;23295;-61
2022/01/10 10:01:08;;;;;;;38.60;35.10;;;;;;;-3.28;76.05;97932.22;109595;1272;22504;-62
2022/01/10 10:03:37;;;;;;;36.10;32.50;;;;;;;-3.27;75.98;97939.55;109609;1274;23303;-61
2022/01/10 10:06:05;;;;;;;35.00;29.00;;;;;;;-3.24;76.09;97941.99;109590;1274;22445;-62
2022/01/10 10:08:38;;;;;;;31.90;28.60;;;;;;;-3.17;76.29;97951.73;109592;1274;22541;-62
2022/01/10 10:11:08;;;;;;;31.80;28.70;;;;;;;-3.11;76.21;97951.41;109603;1274;22477;-63
2022/01/10 10:13:56;;;;;;;32.60;29.40;;;;;;;-3.07;76.33;97953.51;109581;1274;22492;-62
2022/01/10 10:16:26;;;;;;;35.00;31.70;;;;;;;-3.04;76.27;97958.64;109632;1274;23209;-62
2022/01/10 10:18:55;;;;;;;35.80;32.40;;;;;;;-3.00;76.54;97961.63;109597;1274;23196;-63
2022/01/10 10:21:23;;;;;;;31.70;28.70;;;;;;;-2.96;76.43;97968.92;109608;1273;22509;-62
2022/01/10 10:23:51;;;;;;;30.10;27.30;;;;;;;-2.91;76.28;97971.04;109461;1276;22388;-62
2022/01/10 10:26:24;;;;;;;31.70;28.50;;;;;;;-2.85;76.10;97975.27;109535;1275;22568;-63
2022/01/10 10:28:54;;;;;;;47.00;32.40;;;;;;;-2.76;76.17;97973.35;109597;1272;22417;-63
2022/01/10 10:31:42;;;;;;;33.80;30.50;;;;;;;-2.69;76.27;97981.55;109512;1274;22589;-63
2022/01/10 10:34:12;;;;;;;32.00;29.10;;;;;;;-2.62;76.35;97979.89;109597;1274;22428;-61
2022/01/10 10:36:40;;;;;;;31.50;28.40;;;;;;;-2.62;76.43;97983.91;109587;1273;22444;-62
2022/01/10 10:39:10;;;;;;;29.70;26.90;;;;;;;-2.63;76.28;97987.37;109614;1274;22572;-62
2022/01/10 10:41:39;;;;;;;26.60;24.00;;;;;;;-2.62;76.41;97983.67;109592;1274;22346;-62
2022/01/10 10:44:07;;;;;;;152.70;25.40;;;;;;;-2.55;76.44;97986.46;109515;1274;22483;-62
2022/01/10 10:46:42;;;;;;;30.30;26.20;;;;;;;-2.45;76.29;97990.23;109591;1274;22433;-62
2022/01/10 10:49:18;;;;;;;28.50;25.50;;;;;;;-2.34;76.39;97990.92;109612;1274;22566;-62
2022/01/10 10:51:51;;;;;;;28.70;25.60;;;;;;;-2.27;76.32;97993.10;109575;1274;22463;-62
2022/01/10 10:54:22;;;;;;;35.80;27.30;;;;;;;-2.21;76.56;97993.14;109611;1274;22519;-62
2022/01/10 10:56:51;;;;;;;30.20;27.40;;;;;;;-2.14;76.53;97997.16;109452;1276;22496;-62
2022/01/10 10:59:20;;;;;;;32.90;29.80;;;;;;;-2.09;76.51;97999.61;109586;1274;22591;-62
2022/01/10 11:01:48;;;;;;;37.20;33.70;;;;;;;-2.05;76.38;98003.74;109617;1274;22412;-62
2022/01/10 11:04:19;;;;;;;28.50;25.40;;;;;;;-2.01;76.27;98006.45;109587;1274;22464;-63
2022/01/10 11:06:48;;;;;;;26.10;23.70;;;;;;;-1.98;76.22;98008.20;109570;1276;22447;-64
2022/01/10 11:09:18;;;;;;;27.10;24.60;;;;;;;-1.94;76.14;98011.27;109606;1274;23082;-63
2022/01/10 11:11:46;;;;;;;31.80;26.90;;;;;;;-1.92;76.10;98016.94;109598;1274;22466;-63
2022/01/10 11:14:17;;;;;;;43.80;28.60;;;;;;;-1.88;76.25;98016.61;109563;1274;23342;-63
2022/01/10 11:16:46;;;;;;;40.70;29.70;;;;;;;-1.87;76.12;98018.91;109602;1274;22418;-63
2022/01/10 11:19:21;;;;;;;45.10;31.70;;;;;;;-1.88;76.16;98021.21;109613;1274;23212;-64
2022/01/10 11:22:01;;;;;;;34.40;31.20;;;;;;;-1.86;76.11;98030.62;109584;1274;22445;-63
2022/01/10 11:24:48;;;;;;;30.30;27.00;;;;;;;-1.83;76.15;98035.46;109604;1274;22444;-63
2022/01/10 11:27:37;;;;;;;30.00;24.60;;;;;;;-1.84;76.07;98039.95;109610;1274;22169;-62
2022/01/10 11:30:28;;;;;;;33.20;29.90;;;;;;;-1.83;75.97;98049.52;109605;1274;22621;-62